WetterOnline ( http://www.wetteronline.de )

Wetter aktuell Bad Grund (Harz)

Aktuelles Wetter: Alfeld (148m)

6-stündlich | Neueste Meldungen
Ortszeit Temperatur Wetter
Mi, 14.11. 13:00 11.8° C wolkenlos
Mi, 14.11. 7:00 7.7° C wolkig
Mi, 14.11. 1:00 9.7° C bewölkt
Di, 13.11. 19:00 7.7° C fast wolkenlos
Di, 13.11. 13:00 12.5° C bewölkt
Di, 13.11. 7:00 10.4° C leichter Regen
Di, 13.11. 1:00 10.8° C leichter Regen
Mo, 12.11. 19:00 15.2° C bedeckt
Ortszeit Temperatur Wetter
Mi, 14.11. 13:30 11.8° C fast wolkenlos
Mi, 14.11. 13:20 11.8° C fast wolkenlos
Mi, 14.11. 13:10 11.9° C fast wolkenlos
Mi, 14.11. 13:00 11.8° C wolkenlos
Mi, 14.11. 12:50 11.8° C wolkenlos
Mi, 14.11. 12:40 11.9° C wolkenlos
Mi, 14.11. 12:30 11.6° C fast wolkenlos
Mi, 14.11. 12:00 11.5° C fast wolkenlos
Mi, 14.11. 11:30 10.8° C leicht bewölkt
Mi, 14.11. 11:00 9.9° C fast wolkenlos
Mi, 14.11. 10:30 9.1° C wolkenlos
Ortszeit Relative Feuchte Sichtweite
Mi, 14.11. 13:00 73% 35 km
Mi, 14.11. 7:00 87% 30 km
Mi, 14.11. 1:00 82% 30 km
Di, 13.11. 19:00 93% 30 km
Di, 13.11. 13:00 68% 70 km
Di, 13.11. 7:00 96% 6 km
Di, 13.11. 1:00 94% 5.0 km
Mo, 12.11. 19:00 67% 70 km
Ortszeit Relative Feuchte Sichtweite
Mi, 14.11. 13:30 72% 35 km
Mi, 14.11. 13:20 72% -
Mi, 14.11. 13:10 73% -
Mi, 14.11. 13:00 73% 35 km
Mi, 14.11. 12:50 73% -
Mi, 14.11. 12:40 72% -
Mi, 14.11. 12:30 71% 45 km
Mi, 14.11. 12:00 72% 30 km
Mi, 14.11. 11:30 73% 35 km
Mi, 14.11. 11:00 77% 45 km
Mi, 14.11. 10:30 81% 30 km
Ortszeit Niederschlagsmenge Niederschlagsart
Mi, 14.11. 13:00 0.0 l/m2 in 6 Std. -
Mi, 14.11. 7:00 0.0 l/m2 in 12 Std. -
Mi, 14.11. 1:00 0.0 l/m2 in 6 Std. -
Di, 13.11. 19:00 2 l/m2 in 12 Std. Regen
Di, 13.11. 13:00 0.5 l/m2 in 6 Std. Regen
Di, 13.11. 7:00 2 l/m2 in 12 Std. Regen
Di, 13.11. 1:00 0.3 l/m2 in 6 Std. Regen
Mo, 12.11. 19:00 0.2 l/m2 in 12 Std. -
Ortszeit Niederschlagsmenge Niederschlagsart
Mi, 14.11. 13:30 0.0 l/m2 in 1 Std. -
Mi, 14.11. 13:20 keine Meldung -
Mi, 14.11. 13:10 keine Meldung -
Mi, 14.11. 13:00 0.0 l/m2 in 1 Std. -
Mi, 14.11. 12:50 keine Meldung -
Mi, 14.11. 12:40 keine Meldung -
Mi, 14.11. 12:30 0.0 l/m2 in 1 Std. -
Mi, 14.11. 12:00 0.0 l/m2 in 1 Std. -
Mi, 14.11. 11:30 0.0 l/m2 in 1 Std. -
Mi, 14.11. 11:00 0.0 l/m2 in 1 Std. -
Mi, 14.11. 10:30 0.0 l/m2 in 1 Std. -
Ortszeit Stärke Spitze Richtung
km/h Bft. km/h Grad Sektor
Mi, 14.11. 13:00 9 2 20 170° S
Mi, 14.11. 7:00 7 2 18 210° SW
Mi, 14.11. 1:00 11 2 22 220° SW
Di, 13.11. 19:00 4 1 40 170° S
Di, 13.11. 13:00 18 3 36 240° SW
Di, 13.11. 7:00 7 2 14 150° SO
Di, 13.11. 1:00 4 1 25 250° W
Mo, 12.11. 19:00 15 3 41 140° SO
Ortszeit Stärke Spitze Richtung
km/h Bft. km/h Grad Sektor
Mi, 14.11. 13:30 13 3 17 140° SO
Mi, 14.11. 13:20 13 3 - 140° SO
Mi, 14.11. 13:10 11 2 - 150° SO
Mi, 14.11. 13:00 9 2 20 170° S
Mi, 14.11. 12:50 9 2 - 170° S
Mi, 14.11. 12:40 11 2 - 190° S
Mi, 14.11. 12:30 9 2 20 180° S
Mi, 14.11. 12:00 9 2 20 200° S
Mi, 14.11. 11:30 11 2 22 180° S
Mi, 14.11. 11:00 11 2 22 190° S
Mi, 14.11. 10:30 7 2 14 150° SO
Ortszeit Untergrenze Bedeckung Gattung
total tief tief mittel hoch
Mi, 14.11. 13:00 - 0/8 0/8 - - -
Mi, 14.11. 7:00 570 m 5/8 5/8 - - -
Mi, 14.11. 1:00 540 m 7/8 7/8 - - -
Di, 13.11. 19:00 1050 m 1/8 1/8 - - -
Di, 13.11. 13:00 1080 m 7/8 7/8 - - -
Di, 13.11. 7:00 960 m 7/8 7/8 - - -
Di, 13.11. 1:00 360 m 7/8 8/8 - - -
Mo, 12.11. 19:00 3900 m 8/8 8/8 - - -
Ortszeit Bedeckungsgrad in Achtel und Wolkenuntergrenze
Mi, 14.11. 13:30 1(12000m)
Mi, 14.11. 13:20 1(12000m)
Mi, 14.11. 13:10 1(12000m)
Mi, 14.11. 13:00 keine Wolken
Mi, 14.11. 12:50 keine Wolken
Mi, 14.11. 12:40 keine Wolken
Mi, 14.11. 12:30 1(8100m)
Mi, 14.11. 12:00 1(9000m)
Mi, 14.11. 11:30 6(9000m)
Mi, 14.11. 11:00 2(9000m)
Mi, 14.11. 10:30 4(9000m) 4(9000m)
Ortszeit Luftdruck NN (hPa) Tendenz (hPa in 3 Std.)
Mi, 14.11. 13:00 1030 - 0,4
Mi, 14.11. 7:00 1030 - 0,3
Mi, 14.11. 1:00 1029 + 1,1
Di, 13.11. 19:00 1027 + 2,5
Di, 13.11. 13:00 1022 + 0,5
Di, 13.11. 7:00 1020 + 0,4
Di, 13.11. 1:00 1019 + 0,8
Mo, 12.11. 19:00 1015 + 1,1
Ortszeit Luftdruck NN (hPa) Tendenz (hPa in 3 Std.)
Mi, 14.11. 13:30 1029 - 1,1
Mi, 14.11. 13:20 1029 keine Meldung
Mi, 14.11. 13:10 1030 keine Meldung
Mi, 14.11. 13:00 1030 - 0,4
Mi, 14.11. 12:50 1030 keine Meldung
Mi, 14.11. 12:40 1030 keine Meldung
Mi, 14.11. 12:30 1030 0,0
Mi, 14.11. 12:00 1030 + 0,2
Mi, 14.11. 11:30 1030 + 0,4
Mi, 14.11. 11:00 1031 + 0,8
Mi, 14.11. 10:30 1031 + 0,8
Ortszeit Schneehöhe (cm)
Mi, 14.11. 13:00 0
Mi, 14.11. 7:00 0
Mi, 14.11. 1:00 0
Di, 13.11. 19:00 0
Di, 13.11. 13:00 0
Di, 13.11. 7:00 0
Di, 13.11. 1:00 0
Mo, 12.11. 19:00 0
Ortszeit Schneehöhe (cm)
Mi, 14.11. 13:30 0
Mi, 14.11. 13:20 0
Mi, 14.11. 13:10 0
Mi, 14.11. 13:00 0
Mi, 14.11. 12:50 0
Mi, 14.11. 12:40 0
Mi, 14.11. 12:30 0
Mi, 14.11. 12:00 0
Mi, 14.11. 11:30 0
Mi, 14.11. 11:00 0
Mi, 14.11. 10:30 0
Link zu dieser Seite / Seite empfehlen

Das Wetter in ...